sensor_id;sensor_type;location;lat;lon;timestamp;P1;durP1;ratioP1;P2;durP2;ratioP2
77968;SDS011;67161;0.000;0.000;2023-04-01T00:01:38;301.15;;;112.70;;
77968;SDS011;67161;0.000;0.000;2023-04-01T00:04:03;322.15;;;117.60;;
77968;SDS011;67161;0.000;0.000;2023-04-01T00:06:29;399.77;;;134.60;;
77968;SDS011;67161;0.000;0.000;2023-04-01T00:08:55;414.38;;;138.13;;
77968;SDS011;67161;0.000;0.000;2023-04-01T00:11:21;308.33;;;113.72;;
77968;SDS011;67161;0.000;0.000;2023-04-01T00:13:47;348.50;;;122.38;;
77968;SDS011;67161;0.000;0.000;2023-04-01T00:16:13;421.92;;;137.00;;
77968;SDS011;67161;0.000;0.000;2023-04-01T00:18:39;445.92;;;144.25;;
77968;SDS011;67161;0.000;0.000;2023-04-01T00:21:05;462.45;;;148.00;;
77968;SDS011;67161;0.000;0.000;2023-04-01T00:23:31;474.67;;;150.35;;
77968;SDS011;67161;0.000;0.000;2023-04-01T00:25:59;437.40;;;141.07;;
77968;SDS011;67161;0.000;0.000;2023-04-01T00:28:25;487.98;;;155.45;;
77968;SDS011;67161;0.000;0.000;2023-04-01T00:30:52;403.38;;;134.02;;
77968;SDS011;67161;0.000;0.000;2023-04-01T00:33:17;356.25;;;123.97;;
77968;SDS011;67161;0.000;0.000;2023-04-01T00:35:43;357.27;;;123.97;;
77968;SDS011;67161;0.000;0.000;2023-04-01T00:38:09;429.90;;;139.30;;
77968;SDS011;67161;0.000;0.000;2023-04-01T00:40:40;314.40;;;115.13;;
77968;SDS011;67161;0.000;0.000;2023-04-01T00:43:17;225.65;;;93.32;;
77968;SDS011;67161;0.000;0.000;2023-04-01T00:45:45;328.88;;;117.90;;
77968;SDS011;67161;0.000;0.000;2023-04-01T00:48:15;353.67;;;122.65;;
77968;SDS011;67161;0.000;0.000;2023-04-01T00:50:44;431.85;;;138.70;;
77968;SDS011;67161;0.000;0.000;2023-04-01T00:53:17;301.73;;;111.13;;
77968;SDS011;67161;0.000;0.000;2023-04-01T00:55:47;362.33;;;124.97;;
77968;SDS011;67161;0.000;0.000;2023-04-01T00:58:18;424.88;;;138.82;;
77968;SDS011;67161;0.000;0.000;2023-04-01T01:00:47;581.45;;;180.40;;
77968;SDS011;67161;0.000;0.000;2023-04-01T01:03:15;539.47;;;166.15;;
77968;SDS011;67161;0.000;0.000;2023-04-01T01:05:49;526.13;;;166.20;;
77968;SDS011;67161;0.000;0.000;2023-04-01T01:33:33;350.83;;;123.13;;
77968;SDS011;67161;0.000;0.000;2023-04-01T01:36:09;457.75;;;149.35;;
77968;SDS011;67161;0.000;0.000;2023-04-01T01:38:38;460.85;;;148.00;;
77968;SDS011;67161;0.000;0.000;2023-04-01T01:41:05;489.30;;;155.93;;
77968;SDS011;67161;0.000;0.000;2023-04-01T01:43:35;334.48;;;118.57;;
77968;SDS011;67161;0.000;0.000;2023-04-01T01:46:06;321.50;;;115.17;;
77968;SDS011;67161;0.000;0.000;2023-04-01T01:48:36;516.75;;;159.52;;
77968;SDS011;67161;0.000;0.000;2023-04-01T01:51:05;597.17;;;185.27;;
77968;SDS011;67161;0.000;0.000;2023-04-01T01:53:30;550.25;;;169.93;;
77968;SDS011;67161;0.000;0.000;2023-04-01T01:55:56;503.02;;;158.60;;
77968;SDS011;67161;0.000;0.000;2023-04-01T01:58:22;268.38;;;104.38;;
77968;SDS011;67161;0.000;0.000;2023-04-01T02:01:10;417.73;;;134.07;;
77968;SDS011;67161;0.000;0.000;2023-04-01T02:03:40;383.20;;;126.55;;
77968;SDS011;67161;0.000;0.000;2023-04-01T02:06:07;478.75;;;150.48;;
77968;SDS011;67161;0.000;0.000;2023-04-01T02:11:13;496.52;;;159.63;;
77968;SDS011;67161;0.000;0.000;2023-04-01T02:13:45;510.65;;;160.25;;
77968;SDS011;67161;0.000;0.000;2023-04-01T02:16:28;567.78;;;174.85;;
77968;SDS011;67161;0.000;0.000;2023-04-01T02:18:57;630.72;;;195.35;;
77968;SDS011;67161;0.000;0.000;2023-04-01T02:21:25;606.75;;;186.63;;
77968;SDS011;67161;0.000;0.000;2023-04-01T02:23:54;560.80;;;172.63;;
77968;SDS011;67161;0.000;0.000;2023-04-01T02:26:23;632.55;;;197.18;;
77968;SDS011;67161;0.000;0.000;2023-04-01T02:28:50;580.03;;;180.05;;
77968;SDS011;67161;0.000;0.000;2023-04-01T02:31:19;564.95;;;173.98;;
77968;SDS011;67161;0.000;0.000;2023-04-01T02:33:46;679.80;;;212.88;;
77968;SDS011;67161;0.000;0.000;2023-04-01T02:36:12;621.80;;;192.55;;
77968;SDS011;67161;0.000;0.000;2023-04-01T02:38:39;691.20;;;216.27;;
77968;SDS011;67161;0.000;0.000;2023-04-01T02:41:06;750.05;;;235.10;;
77968;SDS011;67161;0.000;0.000;2023-04-01T02:43:32;730.60;;;226.88;;
77968;SDS011;67161;0.000;0.000;2023-04-01T02:45:58;723.00;;;225.07;;
77968;SDS011;67161;0.000;0.000;2023-04-01T02:48:24;739.42;;;230.70;;
77968;SDS011;67161;0.000;0.000;2023-04-01T02:50:50;754.50;;;234.25;;
77968;SDS011;67161;0.000;0.000;2023-04-01T02:53:16;724.72;;;224.18;;
77968;SDS011;67161;0.000;0.000;2023-04-01T02:55:42;693.28;;;215.80;;
77968;SDS011;67161;0.000;0.000;2023-04-01T02:58:07;667.25;;;207.07;;
77968;SDS011;67161;0.000;0.000;2023-04-01T03:00:33;684.05;;;212.68;;
77968;SDS011;67161;0.000;0.000;2023-04-01T03:02:59;714.25;;;221.18;;
77968;SDS011;67161;0.000;0.000;2023-04-01T03:05:25;722.33;;;226.13;;
77968;SDS011;67161;0.000;0.000;2023-04-01T03:07:50;622.83;;;193.27;;
77968;SDS011;67161;0.000;0.000;2023-04-01T03:10:16;2.40;;;0.98;;
77968;SDS011;67161;0.000;0.000;2023-04-01T03:12:42;174.45;;;83.10;;
77968;SDS011;67161;0.000;0.000;2023-04-01T03:15:09;224.25;;;90.13;;
77968;SDS011;67161;0.000;0.000;2023-04-01T03:17:37;318.80;;;115.90;;
77968;SDS011;67161;0.000;0.000;2023-04-01T03:20:03;125.65;;;66.55;;
77968;SDS011;67161;0.000;0.000;2023-04-01T03:22:29;2.53;;;0.80;;
77968;SDS011;67161;0.000;0.000;2023-04-01T03:24:55;1.65;;;0.88;;
77968;SDS011;67161;0.000;0.000;2023-04-01T03:27:21;1.73;;;0.82;;
77968;SDS011;67161;0.000;0.000;2023-04-01T03:29:48;57.08;;;39.80;;
77968;SDS011;67161;0.000;0.000;2023-04-01T03:32:13;156.45;;;76.85;;
77968;SDS011;67161;0.000;0.000;2023-04-01T03:34:39;203.55;;;89.75;;
77968;SDS011;67161;0.000;0.000;2023-04-01T03:37:05;209.20;;;91.32;;
77968;SDS011;67161;0.000;0.000;2023-04-01T03:39:31;296.08;;;110.07;;
77968;SDS011;67161;0.000;0.000;2023-04-01T03:41:56;341.83;;;119.70;;
77968;SDS011;67161;0.000;0.000;2023-04-01T03:44:22;272.48;;;105.70;;
77968;SDS011;67161;0.000;0.000;2023-04-01T03:46:48;251.55;;;100.43;;
77968;SDS011;67161;0.000;0.000;2023-04-01T03:49:13;360.50;;;123.03;;
77968;SDS011;67161;0.000;0.000;2023-04-01T03:51:39;249.23;;;100.55;;
77968;SDS011;67161;0.000;0.000;2023-04-01T03:54:07;330.42;;;116.75;;
77968;SDS011;67161;0.000;0.000;2023-04-01T03:56:33;390.05;;;129.55;;
77968;SDS011;67161;0.000;0.000;2023-04-01T03:59:01;440.08;;;140.73;;
77968;SDS011;67161;0.000;0.000;2023-04-01T04:01:28;418.33;;;135.50;;
77968;SDS011;67161;0.000;0.000;2023-04-01T04:03:54;400.27;;;132.32;;
77968;SDS011;67161;0.000;0.000;2023-04-01T04:06:21;200.43;;;86.60;;
77968;SDS011;67161;0.000;0.000;2023-04-01T04:08:47;309.08;;;113.25;;
77968;SDS011;67161;0.000;0.000;2023-04-01T04:11:13;243.07;;;99.07;;
77968;SDS011;67161;0.000;0.000;2023-04-01T04:13:39;45.42;;;26.13;;
77968;SDS011;67161;0.000;0.000;2023-04-01T04:16:05;18.30;;;11.32;;
77968;SDS011;67161;0.000;0.000;2023-04-01T04:18:31;8.05;;;5.03;;
77968;SDS011;67161;0.000;0.000;2023-04-01T04:20:57;12.82;;;8.98;;
77968;SDS011;67161;0.000;0.000;2023-04-01T04:23:23;148.98;;;75.85;;
77968;SDS011;67161;0.000;0.000;2023-04-01T04:25:58;120.55;;;67.80;;
77968;SDS011;67161;0.000;0.000;2023-04-01T04:28:27;137.02;;;71.80;;
77968;SDS011;67161;0.000;0.000;2023-04-01T04:30:53;217.52;;;93.13;;
77968;SDS011;67161;0.000;0.000;2023-04-01T04:33:19;134.18;;;70.57;;
77968;SDS011;67161;0.000;0.000;2023-04-01T04:35:45;105.40;;;58.92;;
77968;SDS011;67161;0.000;0.000;2023-04-01T04:38:11;103.05;;;58.63;;
77968;SDS011;67161;0.000;0.000;2023-04-01T04:40:37;28.38;;;19.88;;
77968;SDS011;67161;0.000;0.000;2023-04-01T04:43:03;124.18;;;65.15;;
77968;SDS011;67161;0.000;0.000;2023-04-01T04:45:29;39.55;;;20.58;;
77968;SDS011;67161;0.000;0.000;2023-04-01T04:47:55;38.90;;;24.73;;
77968;SDS011;67161;0.000;0.000;2023-04-01T04:50:21;166.98;;;76.50;;
77968;SDS011;67161;0.000;0.000;2023-04-01T04:52:47;2.25;;;0.90;;
77968;SDS011;67161;0.000;0.000;2023-04-01T04:55:13;188.02;;;84.22;;
77968;SDS011;67161;0.000;0.000;2023-04-01T04:57:40;103.60;;;57.20;;
77968;SDS011;67161;0.000;0.000;2023-04-01T05:00:06;50.35;;;28.90;;
77968;SDS011;67161;0.000;0.000;2023-04-01T05:02:32;14.45;;;9.43;;
77968;SDS011;67161;0.000;0.000;2023-04-01T05:04:58;8.55;;;5.25;;
77968;SDS011;67161;0.000;0.000;2023-04-01T05:07:23;4.68;;;3.33;;
77968;SDS011;67161;0.000;0.000;2023-04-01T05:09:49;6.88;;;5.50;;
77968;SDS011;67161;0.000;0.000;2023-04-01T05:12:14;2.30;;;1.02;;
77968;SDS011;67161;0.000;0.000;2023-04-01T05:14:40;1.13;;;0.80;;
77968;SDS011;67161;0.000;0.000;2023-04-01T05:17:09;8.38;;;6.03;;
77968;SDS011;67161;0.000;0.000;2023-04-01T05:19:36;15.25;;;11.15;;
77968;SDS011;67161;0.000;0.000;2023-04-01T05:22:02;20.15;;;12.38;;
77968;SDS011;67161;0.000;0.000;2023-04-01T05:24:28;33.55;;;24.25;;
77968;SDS011;67161;0.000;0.000;2023-04-01T05:26:54;53.78;;;35.15;;
77968;SDS011;67161;0.000;0.000;2023-04-01T05:29:21;56.13;;;31.65;;
77968;SDS011;67161;0.000;0.000;2023-04-01T05:31:46;27.55;;;17.88;;
77968;SDS011;67161;0.000;0.000;2023-04-01T05:34:12;19.77;;;12.77;;
77968;SDS011;67161;0.000;0.000;2023-04-01T05:36:38;25.75;;;16.95;;
77968;SDS011;67161;0.000;0.000;2023-04-01T05:39:04;27.80;;;17.77;;
77968;SDS011;67161;0.000;0.000;2023-04-01T05:41:30;56.10;;;31.10;;
77968;SDS011;67161;0.000;0.000;2023-04-01T05:43:55;24.05;;;15.20;;
77968;SDS011;67161;0.000;0.000;2023-04-01T05:46:21;29.42;;;19.48;;
77968;SDS011;67161;0.000;0.000;2023-04-01T05:48:47;32.47;;;21.95;;
77968;SDS011;67161;0.000;0.000;2023-04-01T05:51:13;52.63;;;33.97;;
77968;SDS011;67161;0.000;0.000;2023-04-01T05:53:39;37.67;;;20.90;;
77968;SDS011;67161;0.000;0.000;2023-04-01T05:56:06;31.58;;;21.98;;
77968;SDS011;67161;0.000;0.000;2023-04-01T05:58:34;63.10;;;36.42;;
77968;SDS011;67161;0.000;0.000;2023-04-01T06:01:04;53.25;;;31.77;;
77968;SDS011;67161;0.000;0.000;2023-04-01T06:03:31;61.58;;;38.60;;
77968;SDS011;67161;0.000;0.000;2023-04-01T06:05:57;49.13;;;31.65;;
77968;SDS011;67161;0.000;0.000;2023-04-01T06:08:23;52.83;;;30.75;;
77968;SDS011;67161;0.000;0.000;2023-04-01T06:38:15;1.27;;;0.80;;
77968;SDS011;67161;0.000;0.000;2023-04-01T06:46:47;52.10;;;33.80;;
77968;SDS011;67161;0.000;0.000;2023-04-01T06:52:19;26.40;;;19.05;;
77968;SDS011;67161;0.000;0.000;2023-04-01T06:54:49;46.83;;;28.80;;
77968;SDS011;67161;0.000;0.000;2023-04-01T06:57:22;33.83;;;19.42;;
77968;SDS011;67161;0.000;0.000;2023-04-01T07:00:00;59.72;;;37.33;;
77968;SDS011;67161;0.000;0.000;2023-04-01T07:05:26;22.15;;;14.68;;
77968;SDS011;67161;0.000;0.000;2023-04-01T07:07:56;18.15;;;12.55;;
77968;SDS011;67161;0.000;0.000;2023-04-01T07:13:04;13.63;;;8.13;;
77968;SDS011;67161;0.000;0.000;2023-04-01T07:15:42;9.20;;;5.43;;
77968;SDS011;67161;0.000;0.000;2023-04-01T07:18:18;15.25;;;9.88;;
77968;SDS011;67161;0.000;0.000;2023-04-01T07:20:48;25.20;;;16.33;;
77968;SDS011;67161;0.000;0.000;2023-04-01T07:23:22;14.02;;;10.95;;
77968;SDS011;67161;0.000;0.000;2023-04-01T07:25:55;10.63;;;7.22;;
77968;SDS011;67161;0.000;0.000;2023-04-01T07:28:23;20.25;;;11.48;;
77968;SDS011;67161;0.000;0.000;2023-04-01T07:31:10;12.68;;;7.55;;
77968;SDS011;67161;0.000;0.000;2023-04-01T07:42:06;29.63;;;19.63;;
77968;SDS011;67161;0.000;0.000;2023-04-01T07:47:50;25.73;;;15.18;;
77968;SDS011;67161;0.000;0.000;2023-04-01T07:50:44;22.80;;;15.98;;
77968;SDS011;67161;0.000;0.000;2023-04-01T07:53:37;12.40;;;7.65;;
77968;SDS011;67161;0.000;0.000;2023-04-01T07:56:18;12.13;;;8.70;;
77968;SDS011;67161;0.000;0.000;2023-04-01T08:10:52;37.50;;;22.13;;
77968;SDS011;67161;0.000;0.000;2023-04-01T08:13:44;21.55;;;13.95;;
77968;SDS011;67161;0.000;0.000;2023-04-01T08:16:56;5.85;;;4.10;;
77968;SDS011;67161;0.000;0.000;2023-04-01T08:23:10;21.67;;;13.20;;
77968;SDS011;67161;0.000;0.000;2023-04-01T08:26:26;18.15;;;12.55;;
77968;SDS011;67161;0.000;0.000;2023-04-01T08:34:08;7.38;;;5.03;;
77968;SDS011;67161;0.000;0.000;2023-04-01T08:36:43;32.47;;;18.80;;
77968;SDS011;67161;0.000;0.000;2023-04-01T08:39:23;20.00;;;10.95;;
77968;SDS011;67161;0.000;0.000;2023-04-01T08:47:34;41.88;;;27.05;;
77968;SDS011;67161;0.000;0.000;2023-04-01T09:01:37;31.38;;;17.58;;
77968;SDS011;67161;0.000;0.000;2023-04-01T09:12:30;35.40;;;18.73;;
77968;SDS011;67161;0.000;0.000;2023-04-01T09:15:03;11.40;;;7.00;;
77968;SDS011;67161;0.000;0.000;2023-04-01T09:40:54;59.08;;;21.60;;
77968;SDS011;67161;0.000;0.000;2023-04-01T09:46:52;57.97;;;16.50;;
77968;SDS011;67161;0.000;0.000;2023-04-01T09:52:35;43.35;;;14.73;;
77968;SDS011;67161;0.000;0.000;2023-04-01T10:07:10;56.42;;;19.00;;
77968;SDS011;67161;0.000;0.000;2023-04-01T10:42:14;52.83;;;23.70;;
77968;SDS011;67161;0.000;0.000;2023-04-01T10:58:43;26.85;;;11.52;;
77968;SDS011;67161;0.000;0.000;2023-04-01T11:27:30;65.60;;;30.98;;
77968;SDS011;67161;0.000;0.000;2023-04-01T11:32:39;62.80;;;30.23;;
77968;SDS011;67161;0.000;0.000;2023-04-01T11:40:47;89.13;;;38.63;;
77968;SDS011;67161;0.000;0.000;2023-04-01T11:53:47;162.68;;;66.95;;
77968;SDS011;67161;0.000;0.000;2023-04-01T11:58:51;136.50;;;50.00;;
77968;SDS011;67161;0.000;0.000;2023-04-01T12:12:13;127.82;;;53.35;;
77968;SDS011;67161;0.000;0.000;2023-04-01T12:15:03;174.32;;;68.63;;
77968;SDS011;67161;0.000;0.000;2023-04-01T12:20:53;160.50;;;65.80;;
77968;SDS011;67161;0.000;0.000;2023-04-01T12:43:03;173.00;;;72.47;;
77968;SDS011;67161;0.000;0.000;2023-04-01T12:57:02;270.10;;;95.53;;
77968;SDS011;67161;0.000;0.000;2023-04-01T13:08:24;174.90;;;69.38;;
77968;SDS011;67161;0.000;0.000;2023-04-01T13:11:02;167.45;;;66.70;;
77968;SDS011;67161;0.000;0.000;2023-04-01T13:16:38;247.90;;;88.18;;
77968;SDS011;67161;0.000;0.000;2023-04-01T13:27:48;133.38;;;51.28;;
77968;SDS011;67161;0.000;0.000;2023-04-01T13:30:33;183.18;;;54.50;;
77968;SDS011;67161;0.000;0.000;2023-04-01T13:33:14;172.27;;;53.17;;
77968;SDS011;67161;0.000;0.000;2023-04-01T13:36:27;206.93;;;60.25;;
77968;SDS011;67161;0.000;0.000;2023-04-01T13:39:10;238.52;;;72.97;;
77968;SDS011;67161;0.000;0.000;2023-04-01T13:44:17;243.20;;;66.50;;
77968;SDS011;67161;0.000;0.000;2023-04-01T13:55:05;260.00;;;90.28;;
77968;SDS011;67161;0.000;0.000;2023-04-01T14:35:37;180.93;;;78.53;;
77968;SDS011;67161;0.000;0.000;2023-04-01T14:38:30;71.75;;;23.50;;
77968;SDS011;67161;0.000;0.000;2023-04-01T14:41:16;121.03;;;57.67;;
77968;SDS011;67161;0.000;0.000;2023-04-01T14:49:36;175.82;;;84.03;;
77968;SDS011;67161;0.000;0.000;2023-04-01T14:54:37;97.07;;;46.85;;
77968;SDS011;67161;0.000;0.000;2023-04-01T14:57:10;144.45;;;71.03;;
77968;SDS011;67161;0.000;0.000;2023-04-01T14:59:46;101.95;;;52.78;;
77968;SDS011;67161;0.000;0.000;2023-04-01T15:02:18;103.28;;;52.03;;
77968;SDS011;67161;0.000;0.000;2023-04-01T15:18:45;146.93;;;71.63;;
77968;SDS011;67161;0.000;0.000;2023-04-01T15:21:27;129.75;;;65.72;;
77968;SDS011;67161;0.000;0.000;2023-04-01T15:26:54;141.77;;;70.78;;
77968;SDS011;67161;0.000;0.000;2023-04-01T15:30:38;119.53;;;59.42;;
77968;SDS011;67161;0.000;0.000;2023-04-01T15:35:28;120.88;;;65.82;;
77968;SDS011;67161;0.000;0.000;2023-04-01T15:54:28;181.00;;;83.83;;
77968;SDS011;67161;0.000;0.000;2023-04-01T16:00:23;176.43;;;83.03;;
77968;SDS011;67161;0.000;0.000;2023-04-01T16:03:54;211.52;;;92.57;;
77968;SDS011;67161;0.000;0.000;2023-04-01T16:11:55;224.38;;;95.70;;
77968;SDS011;67161;0.000;0.000;2023-04-01T16:23:09;177.32;;;83.68;;
77968;SDS011;67161;0.000;0.000;2023-04-01T16:31:30;205.00;;;89.32;;
77968;SDS011;67161;0.000;0.000;2023-04-01T16:36:42;179.52;;;83.43;;
77968;SDS011;67161;0.000;0.000;2023-04-01T16:44:50;15.52;;;10.20;;
77968;SDS011;67161;0.000;0.000;2023-04-01T16:47:39;87.13;;;50.85;;
77968;SDS011;67161;0.000;0.000;2023-04-01T16:50:22;79.47;;;54.58;;
77968;SDS011;67161;0.000;0.000;2023-04-01T16:55:43;8.20;;;2.70;;
77968;SDS011;67161;0.000;0.000;2023-04-01T16:58:35;20.30;;;13.38;;
77968;SDS011;67161;0.000;0.000;2023-04-01T17:01:19;89.50;;;54.22;;
77968;SDS011;67161;0.000;0.000;2023-04-01T17:03:57;6.15;;;2.63;;
77968;SDS011;67161;0.000;0.000;2023-04-01T17:14:52;106.78;;;59.78;;
77968;SDS011;67161;0.000;0.000;2023-04-01T17:20:43;167.40;;;80.25;;
77968;SDS011;67161;0.000;0.000;2023-04-01T17:26:20;183.18;;;83.95;;
77968;SDS011;67161;0.000;0.000;2023-04-01T17:28:52;254.55;;;101.68;;
77968;SDS011;67161;0.000;0.000;2023-04-01T17:44:47;326.15;;;117.60;;
77968;SDS011;67161;0.000;0.000;2023-04-01T17:49:51;297.75;;;110.57;;
77968;SDS011;67161;0.000;0.000;2023-04-01T17:52:39;191.85;;;87.47;;
77968;SDS011;67161;0.000;0.000;2023-04-01T17:55:26;303.65;;;112.45;;
77968;SDS011;67161;0.000;0.000;2023-04-01T17:58:05;12.80;;;8.25;;
77968;SDS011;67161;0.000;0.000;2023-04-01T18:06:12;21.67;;;14.85;;
77968;SDS011;67161;0.000;0.000;2023-04-01T18:14:22;31.00;;;21.15;;
77968;SDS011;67161;0.000;0.000;2023-04-01T18:17:12;67.55;;;41.95;;
77968;SDS011;67161;0.000;0.000;2023-04-01T18:25:01;82.00;;;54.25;;
77968;SDS011;67161;0.000;0.000;2023-04-01T18:28:11;39.95;;;20.67;;
77968;SDS011;67161;0.000;0.000;2023-04-01T18:30:49;35.88;;;24.02;;
77968;SDS011;67161;0.000;0.000;2023-04-01T18:33:53;29.38;;;19.52;;
77968;SDS011;67161;0.000;0.000;2023-04-01T18:39:02;46.05;;;27.42;;
77968;SDS011;67161;0.000;0.000;2023-04-01T18:47:13;112.55;;;55.40;;
77968;SDS011;67161;0.000;0.000;2023-04-01T18:50:18;34.80;;;24.48;;
77968;SDS011;67161;0.000;0.000;2023-04-01T18:52:47;109.32;;;54.15;;
77968;SDS011;67161;0.000;0.000;2023-04-01T18:55:24;89.70;;;49.25;;
77968;SDS011;67161;0.000;0.000;2023-04-01T19:03:31;61.55;;;41.90;;
77968;SDS011;67161;0.000;0.000;2023-04-01T19:06:13;29.05;;;17.27;;
77968;SDS011;67161;0.000;0.000;2023-04-01T19:08:44;54.90;;;30.75;;
77968;SDS011;67161;0.000;0.000;2023-04-01T19:11:29;51.40;;;30.38;;
77968;SDS011;67161;0.000;0.000;2023-04-01T19:25:15;94.47;;;54.42;;
77968;SDS011;67161;0.000;0.000;2023-04-01T19:27:50;112.25;;;55.65;;
77968;SDS011;67161;0.000;0.000;2023-04-01T19:30:27;79.13;;;42.08;;
77968;SDS011;67161;0.000;0.000;2023-04-01T19:38:52;11.75;;;7.38;;
77968;SDS011;67161;0.000;0.000;2023-04-01T19:44:17;19.25;;;11.93;;
77968;SDS011;67161;0.000;0.000;2023-04-01T19:46:58;39.38;;;22.98;;
77968;SDS011;67161;0.000;0.000;2023-04-01T20:00:31;26.85;;;14.52;;
77968;SDS011;67161;0.000;0.000;2023-04-01T20:03:11;29.02;;;17.65;;
77968;SDS011;67161;0.000;0.000;2023-04-01T20:14:07;37.90;;;24.90;;
77968;SDS011;67161;0.000;0.000;2023-04-01T20:16:47;23.73;;;13.52;;
77968;SDS011;67161;0.000;0.000;2023-04-01T20:21:56;24.08;;;14.60;;
77968;SDS011;67161;0.000;0.000;2023-04-01T20:24:37;41.25;;;25.88;;
77968;SDS011;67161;0.000;0.000;2023-04-01T20:27:09;47.05;;;27.35;;
77968;SDS011;67161;0.000;0.000;2023-04-01T20:29:44;38.97;;;22.15;;
77968;SDS011;67161;0.000;0.000;2023-04-01T20:36:10;56.05;;;34.53;;
77968;SDS011;67161;0.000;0.000;2023-04-01T20:38:41;38.13;;;23.85;;
77968;SDS011;67161;0.000;0.000;2023-04-01T20:41:12;49.08;;;37.90;;
77968;SDS011;67161;0.000;0.000;2023-04-01T20:52:35;114.88;;;57.53;;
77968;SDS011;67161;0.000;0.000;2023-04-01T20:57:16;47.88;;;28.42;;
77968;SDS011;67161;0.000;0.000;2023-04-01T21:00:11;14.52;;;9.20;;
77968;SDS011;67161;0.000;0.000;2023-04-01T21:03:07;78.85;;;41.40;;
77968;SDS011;67161;0.000;0.000;2023-04-01T21:11:42;43.15;;;26.90;;
77968;SDS011;67161;0.000;0.000;2023-04-01T21:17:16;69.15;;;38.15;;
77968;SDS011;67161;0.000;0.000;2023-04-01T21:22:35;27.95;;;20.00;;
77968;SDS011;67161;0.000;0.000;2023-04-01T21:34:05;21.15;;;12.60;;
77968;SDS011;67161;0.000;0.000;2023-04-01T21:37:02;26.75;;;14.02;;
77968;SDS011;67161;0.000;0.000;2023-04-01T21:40:00;20.13;;;12.35;;
77968;SDS011;67161;0.000;0.000;2023-04-01T21:51:03;49.38;;;28.60;;
77968;SDS011;67161;0.000;0.000;2023-04-01T22:19:27;209.10;;;90.35;;
77968;SDS011;67161;0.000;0.000;2023-04-01T22:24:52;212.43;;;91.70;;
77968;SDS011;67161;0.000;0.000;2023-04-01T22:27:24;281.08;;;106.88;;
77968;SDS011;67161;0.000;0.000;2023-04-01T22:32:42;186.80;;;82.82;;
77968;SDS011;67161;0.000;0.000;2023-04-01T22:35:21;184.27;;;84.43;;
77968;SDS011;67161;0.000;0.000;2023-04-01T22:40:58;283.63;;;107.22;;
77968;SDS011;67161;0.000;0.000;2023-04-01T22:48:46;333.73;;;117.80;;
77968;SDS011;67161;0.000;0.000;2023-04-01T22:54:29;380.85;;;128.02;;
77968;SDS011;67161;0.000;0.000;2023-04-01T22:57:17;416.50;;;137.10;;
77968;SDS011;67161;0.000;0.000;2023-04-01T22:59:46;381.08;;;128.77;;
77968;SDS011;67161;0.000;0.000;2023-04-01T23:03:21;368.60;;;125.53;;
77968;SDS011;67161;0.000;0.000;2023-04-01T23:05:24;380.25;;;128.25;;
77968;SDS011;67161;0.000;0.000;2023-04-01T23:10:55;383.35;;;129.13;;
77968;SDS011;67161;0.000;0.000;2023-04-01T23:13:24;369.95;;;126.55;;
77968;SDS011;67161;0.000;0.000;2023-04-01T23:15:56;371.27;;;125.55;;
77968;SDS011;67161;0.000;0.000;2023-04-01T23:18:24;371.42;;;125.88;;
77968;SDS011;67161;0.000;0.000;2023-04-01T23:26:46;381.60;;;128.85;;
77968;SDS011;67161;0.000;0.000;2023-04-01T23:29:16;400.13;;;133.40;;
77968;SDS011;67161;0.000;0.000;2023-04-01T23:31:47;398.55;;;131.82;;
77968;SDS011;67161;0.000;0.000;2023-04-01T23:34:22;402.35;;;133.02;;
77968;SDS011;67161;0.000;0.000;2023-04-01T23:41:50;427.08;;;138.07;;
77968;SDS011;67161;0.000;0.000;2023-04-01T23:44:18;446.73;;;144.00;;
77968;SDS011;67161;0.000;0.000;2023-04-01T23:46:45;448.58;;;144.60;;
77968;SDS011;67161;0.000;0.000;2023-04-01T23:49:13;453.98;;;145.07;;
77968;SDS011;67161;0.000;0.000;2023-04-01T23:51:58;454.05;;;145.13;;
77968;SDS011;67161;0.000;0.000;2023-04-01T23:54:38;472.13;;;150.13;;
77968;SDS011;67161;0.000;0.000;2023-04-01T23:57:18;493.27;;;155.55;;
